Time;durP1;ratioP1;P1;durP2;ratioP2;P2;SDS_P1;SDS_P2;PMS_P1;PMS_P2;Temp;Humidity;BMP_temperature;BMP_pressure;BME280_temperature;BME280_humidity;BME280_pressure;Samples;Min_cycle;Max_cycle;Signal;HPM_P1;HPM_P2
2023/12/20 00:00:37;;;;;;;0.20;0.20;;;;;;;;;;5046000;28;20044;-90
2023/12/20 00:03:05;;;;;;;0.20;0.20;;;;;;;;;;5042534;28;20132;-90
2023/12/20 00:05:33;;;;;;;0.20;0.20;;;;;;;;;;5056999;28;20060;-90
2023/12/20 00:08:00;;;;;;;0.20;0.20;;;;;;;;;;5057219;28;20049;-90
2023/12/20 00:10:27;;;;;;;0.20;0.20;;;;;;;;;;5043894;28;20063;-91
2023/12/20 00:12:55;;;;;;;0.20;0.20;;;;;;;;;;5043775;28;20050;-90
2023/12/20 00:15:22;;;;;;;0.30;0.30;;;;;;;;;;5032444;28;20057;-91
2023/12/20 00:17:49;;;;;;;0.47;0.10;;;;;;;;;;5056589;28;20084;-90
2023/12/20 00:20:17;;;;;;;0.20;0.20;;;;;;;;;;5059392;28;20060;-90
2023/12/20 00:22:44;;;;;;;0.40;0.40;;;;;;;;;;5037091;28;20062;-91
2023/12/20 00:25:11;;;;;;;0.10;0.10;;;;;;;;;;5048842;28;20104;-90
2023/12/20 00:27:38;;;;;;;0.10;0.10;;;;;;;;;;5043513;28;20060;-91
2023/12/20 00:30:06;;;;;;;0.17;0.17;;;;;;;;;;5042135;28;20503;-91
2023/12/20 00:32:33;;;;;;;0.20;0.20;;;;;;;;;;5056219;28;20049;-90
2023/12/20 00:35:01;;;;;;;0.10;0.10;;;;;;;;;;5048177;28;20050;-90
2023/12/20 00:37:28;;;;;;;0.10;0.10;;;;;;;;;;5056484;28;20072;-91
2023/12/20 00:39:55;;;;;;;0.32;0.10;;;;;;;;;;5057131;28;20049;-90
2023/12/20 00:42:22;;;;;;;0.10;0.10;;;;;;;;;;5051836;28;20049;-90
2023/12/20 00:44:50;;;;;;;0.38;0.10;;;;;;;;;;5059927;28;20072;-92
2023/12/20 00:47:17;;;;;;;1.02;0.17;;;;;;;;;;5062699;28;20053;-91
2023/12/20 00:49:45;;;;;;;0.10;0.10;;;;;;;;;;5032231;28;20512;-91
2023/12/20 00:52:12;;;;;;;0.10;0.10;;;;;;;;;;5061743;28;20056;-91
2023/12/20 00:54:39;;;;;;;0.20;0.10;;;;;;;;;;5046990;28;20048;-92
2023/12/20 00:57:06;;;;;;;0.10;0.10;;;;;;;;;;5045155;28;20561;-91
2023/12/20 00:59:34;;;;;;;0.10;0.10;;;;;;;;;;5038056;28;20478;-90
2023/12/20 01:02:01;;;;;;;0.03;0.03;;;;;;;;;;5040260;28;20053;-92
2023/12/20 01:04:28;;;;;;;0.20;0.20;;;;;;;;;;5059676;28;20049;-91
2023/12/20 01:06:55;;;;;;;0.10;0.10;;;;;;;;;;5059458;28;20493;-92
2023/12/20 01:09:28;;;;;;;0.20;0.10;;;;;;;;;;5059946;28;20050;-92
2023/12/20 01:11:56;;;;;;;0.08;0.08;;;;;;;;;;5059636;28;20101;-91
2023/12/20 01:14:23;;;;;;;0.00;0.00;;;;;;;;;;5050915;28;20077;-90
2023/12/20 01:16:50;;;;;;;0.20;0.20;;;;;;;;;;5059714;28;20088;-93
2023/12/20 01:19:17;;;;;;;0.32;0.10;;;;;;;;;;5061705;28;20501;-92
2023/12/20 01:21:45;;;;;;;0.17;0.17;;;;;;;;;;5039318;28;20053;-91
2023/12/20 01:24:12;;;;;;;0.20;0.20;;;;;;;;;;5051524;28;20489;-90
2023/12/20 01:26:39;;;;;;;0.08;0.08;;;;;;;;;;5046058;28;20053;-92
2023/12/20 01:29:06;;;;;;;0.10;0.10;;;;;;;;;;5044782;28;20053;-92
2023/12/20 01:31:34;;;;;;;0.13;0.13;;;;;;;;;;5059114;28;20062;-92
2023/12/20 01:34:01;;;;;;;0.40;0.00;;;;;;;;;;5059553;28;20136;-93
2023/12/20 01:36:29;;;;;;;0.17;0.10;;;;;;;;;;5045824;28;20053;-91
2023/12/20 01:38:56;;;;;;;0.10;0.10;;;;;;;;;;5045813;28;20052;-91
2023/12/20 01:41:23;;;;;;;0.28;0.10;;;;;;;;;;5050653;28;20099;-91
2023/12/20 01:43:52;;;;;;;0.10;0.10;;;;;;;;;;5043345;28;20049;-91
2023/12/20 01:46:21;;;;;;;0.15;0.15;;;;;;;;;;5062034;28;20056;-92
2023/12/20 01:48:49;;;;;;;0.25;0.17;;;;;;;;;;5031345;28;20144;-93
2023/12/20 01:51:17;;;;;;;0.55;0.20;;;;;;;;;;5041038;28;20135;-92
2023/12/20 01:53:45;;;;;;;0.32;0.05;;;;;;;;;;5058444;28;20081;-92
2023/12/20 01:56:13;;;;;;;0.55;0.32;;;;;;;;;;5058379;28;20103;-93
2023/12/20 01:58:45;;;;;;;1.67;0.40;;;;;;;;;;5044462;28;20521;-93
2023/12/20 02:01:13;;;;;;;0.40;0.30;;;;;;;;;;5043975;28;20049;-92
2023/12/20 02:03:44;;;;;;;0.20;0.10;;;;;;;;;;5040387;28;20072;-92
2023/12/20 02:06:12;;;;;;;0.10;0.10;;;;;;;;;;5049907;28;20497;-92
2023/12/20 02:08:39;;;;;;;1.50;0.28;;;;;;;;;;5058408;28;20097;-93
2023/12/20 02:11:07;;;;;;;0.15;0.15;;;;;;;;;;5059712;28;20053;-92
2023/12/20 02:13:35;;;;;;;0.47;0.22;;;;;;;;;;5034439;28;20054;-93
2023/12/20 02:16:02;;;;;;;0.20;0.20;;;;;;;;;;5039192;28;20057;-93
2023/12/20 02:18:30;;;;;;;0.10;0.10;;;;;;;;;;5057814;28;20057;-94
2023/12/20 02:20:58;;;;;;;0.28;0.20;;;;;;;;;;5057988;28;20486;-92
2023/12/20 02:23:25;;;;;;;0.25;0.20;;;;;;;;;;5045464;28;20048;-92
2023/12/20 02:25:53;;;;;;;0.15;0.10;;;;;;;;;;5045158;28;20044;-93
2023/12/20 02:28:21;;;;;;;0.32;0.20;;;;;;;;;;5041958;28;20482;-93
2023/12/20 02:30:49;;;;;;;0.10;0.10;;;;;;;;;;5058351;28;20390;-93
2023/12/20 02:33:17;;;;;;;0.10;0.10;;;;;;;;;;5060710;28;20057;-93
2023/12/20 02:35:44;;;;;;;1.45;0.10;;;;;;;;;;5045108;28;20049;-92
2023/12/20 02:38:12;;;;;;;0.10;0.10;;;;;;;;;;5042731;28;20489;-92
2023/12/20 02:40:39;;;;;;;0.30;0.30;;;;;;;;;;5055328;28;20045;-92
2023/12/20 02:43:15;;;;;;;0.40;0.20;;;;;;;;;;5042273;28;20060;-92
2023/12/20 02:45:42;;;;;;;0.45;0.10;;;;;;;;;;5057892;28;20049;-93
2023/12/20 02:48:10;;;;;;;0.10;0.10;;;;;;;;;;5059584;28;20049;-93
2023/12/20 02:50:37;;;;;;;0.20;0.20;;;;;;;;;;5044788;28;20059;-92
2023/12/20 02:53:05;;;;;;;0.10;0.10;;;;;;;;;;5043169;28;20098;-92
2023/12/20 02:55:32;;;;;;;0.10;0.10;;;;;;;;;;5057914;28;20076;-92
2023/12/20 02:58:00;;;;;;;0.52;0.15;;;;;;;;;;5057932;28;20095;-90
2023/12/20 03:00:27;;;;;;;0.15;0.15;;;;;;;;;;5044641;28;20052;-93
2023/12/20 03:02:55;;;;;;;0.30;0.20;;;;;;;;;;5043602;28;20044;-92
2023/12/20 03:05:22;;;;;;;0.25;0.10;;;;;;;;;;5044300;28;20521;-92
2023/12/20 03:07:50;;;;;;;0.20;0.20;;;;;;;;;;5044366;28;20049;-92
2023/12/20 03:10:18;;;;;;;0.43;0.32;;;;;;;;;;5027981;28;20049;-93
2023/12/20 03:12:53;;;;;;;1.95;0.32;;;;;;;;;;5044396;28;20048;-92
2023/12/20 03:15:20;;;;;;;0.30;0.30;;;;;;;;;;5024475;28;20077;-93
2023/12/20 03:17:48;;;;;;;0.95;0.10;;;;;;;;;;5057155;28;20057;-92
2023/12/20 03:20:16;;;;;;;0.55;0.30;;;;;;;;;;5059919;28;20053;-93
2023/12/20 03:22:43;;;;;;;0.20;0.20;;;;;;;;;;5044085;28;20084;-93
2023/12/20 03:25:11;;;;;;;0.15;0.10;;;;;;;;;;5027392;28;20103;-93
2023/12/20 03:27:38;;;;;;;0.57;0.30;;;;;;;;;;5044321;28;20441;-92
2023/12/20 03:30:06;;;;;;;0.20;0.20;;;;;;;;;;5036072;28;20091;-92
2023/12/20 03:32:34;;;;;;;0.43;0.10;;;;;;;;;;5044081;28;20463;-91
2023/12/20 03:35:01;;;;;;;0.20;0.20;;;;;;;;;;5043455;28;20041;-91
2023/12/20 03:37:29;;;;;;;0.85;0.20;;;;;;;;;;5057481;28;20049;-91
2023/12/20 03:39:56;;;;;;;0.30;0.30;;;;;;;;;;5048571;28;20573;-93
2023/12/20 03:42:24;;;;;;;0.30;0.20;;;;;;;;;;5056959;28;20141;-92
2023/12/20 03:44:51;;;;;;;0.50;0.20;;;;;;;;;;5057193;28;20482;-93
2023/12/20 03:47:19;;;;;;;0.30;0.30;;;;;;;;;;5059825;28;20110;-91
2023/12/20 03:49:46;;;;;;;0.50;0.45;;;;;;;;;;5043917;28;20056;-91
2023/12/20 03:52:14;;;;;;;0.73;0.38;;;;;;;;;;5041256;28;20048;-92
2023/12/20 03:54:42;;;;;;;3.50;0.38;;;;;;;;;;5057096;28;20057;-91
2023/12/20 03:57:10;;;;;;;0.20;0.20;;;;;;;;;;5058399;28;20136;-93
2023/12/20 03:59:37;;;;;;;0.20;0.20;;;;;;;;;;5043732;28;20179;-92
2023/12/20 04:02:05;;;;;;;0.25;0.20;;;;;;;;;;5042201;28;20084;-92
2023/12/20 04:04:33;;;;;;;0.20;0.20;;;;;;;;;;5056787;28;20045;-91
2023/12/20 04:07:00;;;;;;;0.68;0.20;;;;;;;;;;5046102;28;20132;-91
2023/12/20 04:09:28;;;;;;;0.55;0.20;;;;;;;;;;5043775;28;20489;-91
2023/12/20 04:11:56;;;;;;;0.10;0.10;;;;;;;;;;5043657;28;20047;-92
2023/12/20 04:14:24;;;;;;;1.75;0.30;;;;;;;;;;5033770;28;20605;-92
2023/12/20 04:16:52;;;;;;;0.20;0.15;;;;;;;;;;5060802;28;20050;-91
2023/12/20 04:19:19;;;;;;;0.15;0.10;;;;;;;;;;5063218;28;20052;-92
2023/12/20 04:21:47;;;;;;;1.10;0.10;;;;;;;;;;5047059;28;20059;-90
2023/12/20 04:24:14;;;;;;;0.10;0.10;;;;;;;;;;5044725;28;20475;-92
2023/12/20 04:26:42;;;;;;;0.10;0.10;;;;;;;;;;5060218;28;20141;-91
2023/12/20 04:29:09;;;;;;;1.00;0.30;;;;;;;;;;5060242;28;20445;-91
2023/12/20 04:31:37;;;;;;;0.20;0.20;;;;;;;;;;5060395;28;20060;-92
2023/12/20 04:34:04;;;;;;;0.40;0.40;;;;;;;;;;5060641;28;20045;-93
2023/12/20 04:36:32;;;;;;;0.32;0.32;;;;;;;;;;5042618;28;20409;-92
2023/12/20 04:38:59;;;;;;;0.20;0.20;;;;;;;;;;5060358;28;20057;-92
2023/12/20 04:41:27;;;;;;;0.60;0.40;;;;;;;;;;5047056;28;20049;-92
2023/12/20 04:43:54;;;;;;;0.30;0.30;;;;;;;;;;5046867;28;20139;-92
2023/12/20 04:46:22;;;;;;;0.45;0.45;;;;;;;;;;5052472;28;20032;-92
2023/12/20 04:48:49;;;;;;;0.40;0.40;;;;;;;;;;5061095;28;20056;-92
2023/12/20 04:51:17;;;;;;;1.02;0.40;;;;;;;;;;5045548;28;20053;-93
2023/12/20 04:53:44;;;;;;;0.55;0.55;;;;;;;;;;5059683;28;20516;-93
2023/12/20 04:56:12;;;;;;;0.52;0.50;;;;;;;;;;5059530;28;20052;-92
2023/12/20 04:58:39;;;;;;;0.32;0.32;;;;;;;;;;5059778;28;20099;-91
2023/12/20 05:01:07;;;;;;;2.00;0.40;;;;;;;;;;5060840;28;20045;-91
2023/12/20 05:03:35;;;;;;;1.25;0.57;;;;;;;;;;5041048;28;20596;-92
2023/12/20 05:06:02;;;;;;;1.20;0.40;;;;;;;;;;5049500;28;20053;-91
2023/12/20 05:08:29;;;;;;;0.65;0.50;;;;;;;;;;5046510;28;20056;-93
2023/12/20 05:10:57;;;;;;;0.70;0.70;;;;;;;;;;5046198;28;20497;-93
2023/12/20 05:13:24;;;;;;;0.60;0.60;;;;;;;;;;5034946;28;20049;-91
2023/12/20 05:16:04;;;;;;;1.67;1.58;;;;;;;;;;5057743;28;20485;-93
2023/12/20 05:18:32;;;;;;;1.88;1.77;;;;;;;;;;5059064;28;20395;-93
2023/12/20 05:20:59;;;;;;;1.80;1.70;;;;;;;;;;5044272;28;20114;-93
2023/12/20 05:23:27;;;;;;;1.42;1.42;;;;;;;;;;5046192;28;20111;-92
2023/12/20 05:25:54;;;;;;;2.33;2.22;;;;;;;;;;5045582;28;20474;-91
2023/12/20 05:28:21;;;;;;;1.35;1.30;;;;;;;;;;5034296;28;20107;-90
2023/12/20 05:30:49;;;;;;;2.25;1.80;;;;;;;;;;5046414;28;20084;-93
2023/12/20 05:33:16;;;;;;;1.75;1.65;;;;;;;;;;5036959;28;20111;-91
2023/12/20 05:35:44;;;;;;;1.17;1.15;;;;;;;;;;5046505;28;20054;-92
2023/12/20 05:38:11;;;;;;;1.05;0.50;;;;;;;;;;5044277;28;20053;-92
2023/12/20 05:40:39;;;;;;;0.80;0.80;;;;;;;;;;5048101;28;20114;-92
2023/12/20 05:43:06;;;;;;;6.10;4.43;;;;;;;;;;5044574;28;20045;-93
2023/12/20 05:45:34;;;;;;;22.33;12.63;;;;;;;;;;5059124;28;20064;-92
2023/12/20 05:48:01;;;;;;;13.50;8.35;;;;;;;;;;5058776;28;20060;-92
2023/12/20 05:50:29;;;;;;;10.45;7.07;;;;;;;;;;5058962;28;20049;-94
2023/12/20 05:52:57;;;;;;;4.57;3.53;;;;;;;;;;5058920;28;20478;-92
2023/12/20 05:55:24;;;;;;;4.38;3.33;;;;;;;;;;5042612;28;20481;-93
2023/12/20 05:57:52;;;;;;;2.25;2.15;;;;;;;;;;5058907;28;20095;-92
2023/12/20 06:00:20;;;;;;;1.55;1.45;;;;;;;;;;5061967;28;20053;-92
2023/12/20 06:02:48;;;;;;;1.67;0.82;;;;;;;;;;5057749;28;20052;-93
2023/12/20 06:05:15;;;;;;;1.48;1.38;;;;;;;;;;5051341;28;20083;-92
2023/12/20 06:07:43;;;;;;;2.35;1.45;;;;;;;;;;5058614;28;20053;-93
2023/12/20 06:10:11;;;;;;;14.80;7.30;;;;;;;;;;5058429;28;20053;-93
2023/12/20 06:12:39;;;;;;;7.55;4.55;;;;;;;;;;5047665;28;20053;-94
2023/12/20 06:15:06;;;;;;;8.40;5.40;;;;;;;;;;5043919;28;20048;-93
2023/12/20 06:17:34;;;;;;;2.50;2.40;;;;;;;;;;5058202;28;20068;-93
2023/12/20 06:20:02;;;;;;;3.95;2.72;;;;;;;;;;5059138;28;20489;-92
2023/12/20 06:22:30;;;;;;;2.17;1.63;;;;;;;;;;5044886;28;20053;-94
2023/12/20 06:24:58;;;;;;;1.48;1.48;;;;;;;;;;5045131;28;20048;-93
2023/12/20 06:27:25;;;;;;;1.65;1.55;;;;;;;;;;5055367;28;20049;-94
2023/12/20 06:29:53;;;;;;;1.85;1.60;;;;;;;;;;5045891;28;20144;-93
2023/12/20 06:32:20;;;;;;;1.00;1.00;;;;;;;;;;5045012;28;20074;-94
2023/12/20 06:34:48;;;;;;;0.70;0.70;;;;;;;;;;5045410;28;20044;-92
2023/12/20 06:37:15;;;;;;;0.80;0.80;;;;;;;;;;5038003;28;20054;-93
2023/12/20 06:39:42;;;;;;;0.70;0.70;;;;;;;;;;5046383;28;20073;-92
2023/12/20 06:42:09;;;;;;;1.45;1.35;;;;;;;;;;5043285;28;20059;-94
2023/12/20 06:44:37;;;;;;;1.50;1.40;;;;;;;;;;5042637;28;20103;-93
2023/12/20 06:47:04;;;;;;;3.17;1.60;;;;;;;;;;5058971;28;20052;-93
2023/12/20 06:49:32;;;;;;;4.00;1.10;;;;;;;;;;5044962;28;20145;-92
2023/12/20 06:51:59;;;;;;;1.95;1.60;;;;;;;;;;5045398;28;20072;-92
2023/12/20 06:54:26;;;;;;;1.60;1.30;;;;;;;;;;5029459;28;20045;-93
2023/12/20 06:56:53;;;;;;;2.00;1.80;;;;;;;;;;5044710;28;20103;-94
2023/12/20 06:59:21;;;;;;;2.22;2.00;;;;;;;;;;5041725;28;20061;-93
2023/12/20 07:01:49;;;;;;;2.17;1.98;;;;;;;;;;5063514;28;20148;-93
2023/12/20 07:04:21;;;;;;;5.05;1.80;;;;;;;;;;5042495;28;20132;-92
2023/12/20 07:06:56;;;;;;;2.03;1.30;;;;;;;;;;5057815;28;20041;-93
2023/12/20 07:09:24;;;;;;;1.80;1.27;;;;;;;;;;5049966;28;20761;-93
2023/12/20 07:11:51;;;;;;;4.80;1.00;;;;;;;;;;5057861;28;20099;-92
2023/12/20 07:14:18;;;;;;;5.50;1.60;;;;;;;;;;5054411;28;20132;-92
2023/12/20 07:16:45;;;;;;;3.38;2.42;;;;;;;;;;5026520;28;20054;-93
2023/12/20 07:19:14;;;;;;;3.13;1.85;;;;;;;;;;5051141;28;20123;-93
2023/12/20 07:21:41;;;;;;;7.80;1.95;;;;;;;;;;5057614;28;20111;-94
2023/12/20 07:24:08;;;;;;;3.88;3.50;;;;;;;;;;5042214;28;20053;-93
2023/12/20 07:26:37;;;;;;;1.02;0.90;;;;;;;;;;5045394;28;20045;-93
2023/12/20 07:29:04;;;;;;;1.75;1.40;;;;;;;;;;5043978;28;20057;-94
2023/12/20 07:31:32;;;;;;;1.17;1.05;;;;;;;;;;5041106;28;20072;-93
2023/12/20 07:33:59;;;;;;;2.50;2.30;;;;;;;;;;5041281;28;20465;-93
2023/12/20 07:36:27;;;;;;;1.90;1.80;;;;;;;;;;5044609;28;20102;-93
2023/12/20 07:38:55;;;;;;;0.93;0.93;;;;;;;;;;5044353;28;20049;-92
2023/12/20 07:41:23;;;;;;;1.80;1.35;;;;;;;;;;5029233;28;20411;-93
2023/12/20 07:43:51;;;;;;;2.45;1.60;;;;;;;;;;5019950;28;20060;-92
2023/12/20 07:46:22;;;;;;;1.73;1.33;;;;;;;;;;5060466;28;20469;-94
2023/12/20 07:48:50;;;;;;;1.70;1.58;;;;;;;;;;5045374;28;20528;-95
2023/12/20 07:51:18;;;;;;;1.95;1.60;;;;;;;;;;5045853;28;20464;-92
2023/12/20 07:53:45;;;;;;;2.03;1.92;;;;;;;;;;5061230;28;20478;-94
2023/12/20 07:56:16;;;;;;;3.33;2.50;;;;;;;;;;5061025;28;20045;-92
2023/12/20 07:58:44;;;;;;;4.28;2.38;;;;;;;;;;5061126;28;20053;-93
2023/12/20 08:01:19;;;;;;;3.40;3.10;;;;;;;;;;5063176;28;20080;-93
2023/12/20 08:03:49;;;;;;;5.72;1.80;;;;;;;;;;5048175;28;20053;-93
2023/12/20 08:06:17;;;;;;;3.53;3.22;;;;;;;;;;5045613;28;20110;-94
2023/12/20 08:08:45;;;;;;;7.00;3.58;;;;;;;;;;5044674;28;20046;-93
2023/12/20 08:11:21;;;;;;;3.55;3.25;;;;;;;;;;5048150;28;20076;-93
2023/12/20 08:13:49;;;;;;;3.35;3.05;;;;;;;;;;5033581;28;20057;-92
2023/12/20 08:16:17;;;;;;;2.45;2.20;;;;;;;;;;5043626;28;20136;-92
2023/12/20 08:18:45;;;;;;;2.20;2.00;;;;;;;;;;5060514;28;20053;-93
2023/12/20 08:21:12;;;;;;;3.70;2.92;;;;;;;;;;5063097;28;20053;-94
2023/12/20 08:23:40;;;;;;;8.52;7.07;;;;;;;;;;5047649;28;20060;-93
2023/12/20 08:26:11;;;;;;;7.82;7.05;;;;;;;;;;5046437;28;20551;-94
2023/12/20 08:28:39;;;;;;;5.25;4.28;;;;;;;;;;5061168;28;20099;-90
2023/12/20 08:31:06;;;;;;;12.93;10.32;;;;;;;;;;5046328;28;20551;-93
2023/12/20 08:33:34;;;;;;;4.88;4.35;;;;;;;;;;5061957;28;20116;-93
2023/12/20 08:36:05;;;;;;;4.53;4.13;;;;;;;;;;5051662;28;20053;-93
2023/12/20 08:38:32;;;;;;;4.47;3.70;;;;;;;;;;5044423;28;20057;-92
2023/12/20 08:41:01;;;;;;;9.07;4.68;;;;;;;;;;5044666;28;20107;-92
2023/12/20 08:43:28;;;;;;;5.82;5.22;;;;;;;;;;5046937;28;20110;-94
2023/12/20 08:45:56;;;;;;;8.65;7.25;;;;;;;;;;5047637;28;20135;-93
2023/12/20 08:48:24;;;;;;;66.50;45.50;;;;;;;;;;5036023;28;20076;-92
2023/12/20 08:50:52;;;;;;;55.15;38.42;;;;;;;;;;5068184;28;20556;-94
2023/12/20 08:53:19;;;;;;;37.35;26.83;;;;;;;;;;5028193;28;20124;-92
2023/12/20 08:55:47;;;;;;;23.50;17.85;;;;;;;;;;5045456;28;20475;-92
2023/12/20 08:58:14;;;;;;;29.52;23.05;;;;;;;;;;5045850;28;20482;-93
2023/12/20 09:00:42;;;;;;;35.28;25.85;;;;;;;;;;5046529;28;20049;-93
2023/12/20 09:03:09;;;;;;;19.85;15.75;;;;;;;;;;5044659;28;20071;-93
2023/12/20 09:05:37;;;;;;;25.13;16.83;;;;;;;;;;5057588;28;20485;-95
2023/12/20 09:08:04;;;;;;;19.40;14.15;;;;;;;;;;5045790;28;20052;-93
2023/12/20 09:10:31;;;;;;;15.75;11.35;;;;;;;;;;5060301;28;20073;-94
2023/12/20 09:12:58;;;;;;;11.38;7.88;;;;;;;;;;5044683;28;20144;-93
2023/12/20 09:15:27;;;;;;;9.35;8.23;;;;;;;;;;5046899;28;20048;-91
2023/12/20 09:17:54;;;;;;;11.02;8.95;;;;;;;;;;5046698;28;20057;-93
2023/12/20 09:20:23;;;;;;;13.93;11.13;;;;;;;;;;5043127;28;20045;-92
2023/12/20 09:22:51;;;;;;;15.15;8.93;;;;;;;;;;5043175;28;20085;-93
2023/12/20 09:25:18;;;;;;;11.77;8.93;;;;;;;;;;5046175;28;20157;-94
2023/12/20 09:27:45;;;;;;;9.57;8.35;;;;;;;;;;5046818;28;20079;-93
2023/12/20 09:30:13;;;;;;;14.60;8.70;;;;;;;;;;5045410;28;20052;-93
2023/12/20 09:32:53;;;;;;;9.15;8.05;;;;;;;;;;5044028;28;20057;-93
2023/12/20 09:35:21;;;;;;;17.75;10.70;;;;;;;;;;5062840;28;20041;-93
2023/12/20 09:37:48;;;;;;;16.33;11.52;;;;;;;;;;5046158;28;20045;-92
2023/12/20 09:40:18;;;;;;;15.05;10.55;;;;;;;;;;5043567;28;20102;-94
2023/12/20 09:42:51;;;;;;;16.65;10.10;;;;;;;;;;5043450;28;20516;-94
2023/12/20 09:45:21;;;;;;;12.35;8.95;;;;;;;;;;5059969;28;20136;-93
2023/12/20 09:47:50;;;;;;;8.05;4.10;;;;;;;;;;5053962;28;20045;-94
2023/12/20 09:50:21;;;;;;;9.05;4.00;;;;;;;;;;5060107;28;20060;-95
2023/12/20 09:52:53;;;;;;;4.78;2.97;;;;;;;;;;5032106;28;20061;-93
2023/12/20 09:55:21;;;;;;;6.60;4.80;;;;;;;;;;5043914;28;20144;-94
2023/12/20 09:57:48;;;;;;;4.82;2.42;;;;;;;;;;5051843;28;20048;-94
2023/12/20 10:00:19;;;;;;;5.15;3.60;;;;;;;;;;5045663;28;20060;-95
2023/12/20 10:02:51;;;;;;;3.22;2.30;;;;;;;;;;5060125;28;20132;-92
2023/12/20 10:05:19;;;;;;;5.47;3.10;;;;;;;;;;5063581;28;20129;-95
2023/12/20 10:07:47;;;;;;;7.47;3.88;;;;;;;;;;5047971;28;20394;-96
2023/12/20 10:10:15;;;;;;;6.85;3.65;;;;;;;;;;5038887;28;20091;-94
2023/12/20 10:13:01;;;;;;;6.57;3.65;;;;;;;;;;5047479;28;20045;-95
2023/12/20 10:15:29;;;;;;;6.15;2.20;;;;;;;;;;5036428;28;20554;-94
2023/12/20 10:17:56;;;;;;;3.40;1.50;;;;;;;;;;5062091;28;20058;-94
2023/12/20 10:20:29;;;;;;;3.65;1.08;;;;;;;;;;5052275;28;20053;-95
2023/12/20 10:22:56;;;;;;;4.57;1.73;;;;;;;;;;5031138;28;20054;-95
2023/12/20 10:25:24;;;;;;;5.95;1.98;;;;;;;;;;5059880;28;20099;-95
2023/12/20 10:28:09;;;;;;;5.00;1.92;;;;;;;;;;5060436;28;20501;-95
2023/12/20 10:30:37;;;;;;;6.00;2.20;;;;;;;;;;5053483;28;20046;-96
2023/12/20 10:33:06;;;;;;;4.20;1.50;;;;;;;;;;5046893;28;20072;-94
2023/12/20 10:35:33;;;;;;;2.88;1.23;;;;;;;;;;5047762;28;20041;-95
2023/12/20 10:38:03;;;;;;;6.15;1.42;;;;;;;;;;5048796;28;20057;-94
2023/12/20 10:40:31;;;;;;;6.50;1.75;;;;;;;;;;5060799;28;20056;-96
2023/12/20 10:42:58;;;;;;;2.47;1.60;;;;;;;;;;5050708;28;20098;-95
2023/12/20 10:45:26;;;;;;;3.03;2.10;;;;;;;;;;5051910;28;20060;-94
2023/12/20 10:47:54;;;;;;;4.80;1.85;;;;;;;;;;5051843;28;20119;-92
2023/12/20 10:50:21;;;;;;;4.10;1.70;;;;;;;;;;5046628;28;20046;-93
2023/12/20 10:52:48;;;;;;;3.35;1.50;;;;;;;;;;5062169;28;20059;-96
2023/12/20 10:55:16;;;;;;;4.95;1.92;;;;;;;;;;5040049;28;20050;-94
2023/12/20 10:57:45;;;;;;;5.47;2.42;;;;;;;;;;5070488;28;20143;-95
2023/12/20 11:00:14;;;;;;;3.72;2.55;;;;;;;;;;5058977;28;20049;-93
2023/12/20 11:02:42;;;;;;;4.40;1.70;;;;;;;;;;5048196;28;20056;-94
2023/12/20 11:05:29;;;;;;;2.42;1.80;;;;;;;;;;5054893;28;20054;-94
2023/12/20 11:08:22;;;;;;;3.80;1.50;;;;;;;;;;5046298;28;20044;-93
2023/12/20 11:10:56;;;;;;;4.13;1.65;;;;;;;;;;5032755;28;20080;-95
2023/12/20 11:13:27;;;;;;;4.07;1.55;;;;;;;;;;5047317;28;20112;-92
2023/12/20 11:15:55;;;;;;;4.30;2.20;;;;;;;;;;5038032;28;20137;-92
2023/12/20 11:18:29;;;;;;;6.20;2.53;;;;;;;;;;5044893;28;20398;-93
2023/12/20 11:21:01;;;;;;;4.53;2.50;;;;;;;;;;5045205;28;20048;-96
2023/12/20 11:23:30;;;;;;;6.18;1.80;;;;;;;;;;5033980;28;20060;-93
2023/12/20 11:25:58;;;;;;;7.85;2.20;;;;;;;;;;5059184;28;20482;-95
2023/12/20 11:28:26;;;;;;;5.25;1.70;;;;;;;;;;5045036;28;20567;-94
2023/12/20 11:30:55;;;;;;;2.25;1.55;;;;;;;;;;5045698;28;20103;-95
2023/12/20 11:33:23;;;;;;;5.90;1.60;;;;;;;;;;5033282;28;20045;-94
2023/12/20 11:35:56;;;;;;;3.70;1.65;;;;;;;;;;5057537;28;20081;-95
2023/12/20 11:38:24;;;;;;;2.58;1.38;;;;;;;;;;5038200;28;20100;-92
2023/12/20 11:40:54;;;;;;;4.00;1.30;;;;;;;;;;5038328;28;20085;-94
2023/12/20 11:43:32;;;;;;;4.53;1.42;;;;;;;;;;5061233;28;20149;-93
2023/12/20 11:46:04;;;;;;;4.57;1.10;;;;;;;;;;5044551;28;20489;-92
2023/12/20 11:48:32;;;;;;;3.55;1.10;;;;;;;;;;5058115;28;20515;-93
2023/12/20 11:50:59;;;;;;;4.55;1.38;;;;;;;;;;5042327;28;20506;-93
2023/12/20 11:53:26;;;;;;;5.43;1.15;;;;;;;;;;5041580;28;20053;-93
2023/12/20 11:55:55;;;;;;;1.92;0.82;;;;;;;;;;5042437;28;20095;-94
2023/12/20 11:58:22;;;;;;;4.35;0.90;;;;;;;;;;5061288;28;20048;-93
2023/12/20 12:00:51;;;;;;;2.92;1.02;;;;;;;;;;5037702;28;20055;-92
2023/12/20 12:03:19;;;;;;;4.13;0.93;;;;;;;;;;5041043;28;20056;-92
2023/12/20 12:05:47;;;;;;;5.43;1.05;;;;;;;;;;5040540;28;20131;-92
2023/12/20 12:08:15;;;;;;;2.40;1.17;;;;;;;;;;5044263;28;20053;-91
2023/12/20 12:10:42;;;;;;;2.58;0.90;;;;;;;;;;5044082;28;20088;-92
2023/12/20 12:13:09;;;;;;;4.78;0.80;;;;;;;;;;5042489;28;20053;-91
2023/12/20 12:15:37;;;;;;;4.57;1.20;;;;;;;;;;5041779;28;20049;-92
2023/12/20 12:18:05;;;;;;;2.55;0.73;;;;;;;;;;5069431;28;20088;-91
2023/12/20 12:20:32;;;;;;;1.95;0.60;;;;;;;;;;5057521;28;20084;-92
2023/12/20 12:23:03;;;;;;;2.17;1.10;;;;;;;;;;5048607;28;20441;-90
2023/12/20 12:25:31;;;;;;;2.97;0.90;;;;;;;;;;5057761;28;20061;-92
2023/12/20 12:27:59;;;;;;;1.88;0.70;;;;;;;;;;5056977;28;20101;-91
2023/12/20 12:30:27;;;;;;;1.45;0.95;;;;;;;;;;5029489;28;20069;-92
2023/12/20 12:33:04;;;;;;;3.20;0.85;;;;;;;;;;5043456;28;20086;-91
2023/12/20 12:35:31;;;;;;;1.88;1.10;;;;;;;;;;5043594;28;20049;-93
2023/12/20 12:38:00;;;;;;;1.08;0.98;;;;;;;;;;5061298;28;20053;-90
2023/12/20 12:40:27;;;;;;;1.17;0.95;;;;;;;;;;5047544;28;20053;-91
2023/12/20 12:42:54;;;;;;;1.67;0.85;;;;;;;;;;5046827;28;20051;-92
2023/12/20 12:45:22;;;;;;;2.60;0.95;;;;;;;;;;5043402;28;20049;-92
2023/12/20 12:47:49;;;;;;;2.05;1.10;;;;;;;;;;5059983;28;20092;-91
2023/12/20 12:50:16;;;;;;;2.50;1.10;;;;;;;;;;5062580;28;20049;-92
2023/12/20 12:52:44;;;;;;;2.40;1.08;;;;;;;;;;5047090;28;20574;-91
2023/12/20 12:55:11;;;;;;;2.78;1.00;;;;;;;;;;5030733;28;20100;-91
2023/12/20 12:57:38;;;;;;;5.78;1.23;;;;;;;;;;5046789;28;20048;-91
2023/12/20 13:00:08;;;;;;;2.55;0.95;;;;;;;;;;5045663;28;20098;-91
2023/12/20 13:02:37;;;;;;;1.80;1.30;;;;;;;;;;5059608;28;20049;-93
2023/12/20 13:05:05;;;;;;;2.63;1.20;;;;;;;;;;5059598;28;20052;-92
2023/12/20 13:07:32;;;;;;;2.28;1.20;;;;;;;;;;5054963;28;20060;-90
2023/12/20 13:10:00;;;;;;;2.42;0.90;;;;;;;;;;5040807;28;20053;-93
2023/12/20 13:12:27;;;;;;;1.50;0.95;;;;;;;;;;5059328;28;20042;-91
2023/12/20 13:14:55;;;;;;;6.68;1.60;;;;;;;;;;5059448;28;20467;-91
2023/12/20 13:17:22;;;;;;;5.32;1.42;;;;;;;;;;5062826;28;20057;-91
2023/12/20 13:19:49;;;;;;;4.75;1.02;;;;;;;;;;5032312;28;20484;-91
2023/12/20 13:22:17;;;;;;;2.75;1.10;;;;;;;;;;5062047;28;20416;-90
2023/12/20 13:24:44;;;;;;;5.32;1.20;;;;;;;;;;5046145;28;20053;-90
2023/12/20 13:27:12;;;;;;;1.13;1.00;;;;;;;;;;5044174;28;20048;-90
2023/12/20 13:29:39;;;;;;;3.47;1.17;;;;;;;;;;5044052;28;20045;-91
2023/12/20 13:32:07;;;;;;;3.10;1.30;;;;;;;;;;5051256;28;20049;-90
2023/12/20 13:34:35;;;;;;;3.33;1.20;;;;;;;;;;5035562;28;20084;-90
2023/12/20 13:37:04;;;;;;;2.40;1.00;;;;;;;;;;5043536;28;20501;-90
2023/12/20 13:39:31;;;;;;;0.80;0.80;;;;;;;;;;5045791;28;20087;-91
2023/12/20 13:41:59;;;;;;;2.80;0.68;;;;;;;;;;5046210;28;20057;-93
2023/12/20 13:44:27;;;;;;;1.20;0.73;;;;;;;;;;5038274;28;20061;-88
2023/12/20 13:46:54;;;;;;;0.93;0.70;;;;;;;;;;5038505;28;20045;-91
2023/12/20 13:49:25;;;;;;;4.68;0.93;;;;;;;;;;5046682;28;20460;-90
2023/12/20 13:51:54;;;;;;;1.50;0.90;;;;;;;;;;5046113;28;20489;-92
2023/12/20 13:54:22;;;;;;;3.17;0.70;;;;;;;;;;5042683;28;20103;-91
2023/12/20 13:56:49;;;;;;;1.75;0.80;;;;;;;;;;5035882;28;20495;-93
2023/12/20 13:59:35;;;;;;;1.35;0.70;;;;;;;;;;5037041;28;20140;-91
2023/12/20 14:02:03;;;;;;;1.23;0.80;;;;;;;;;;5059781;28;20415;-90
2023/12/20 14:04:31;;;;;;;1.30;0.73;;;;;;;;;;5045763;28;20136;-93
2023/12/20 14:07:10;;;;;;;2.63;0.65;;;;;;;;;;5046830;28;20057;-92
2023/12/20 14:09:39;;;;;;;3.35;1.42;;;;;;;;;;5034569;28;20050;-90
2023/12/20 14:12:06;;;;;;;4.35;1.00;;;;;;;;;;5039841;28;20123;-91
2023/12/20 14:14:33;;;;;;;2.05;0.77;;;;;;;;;;5059875;28;20476;-90
2023/12/20 14:17:01;;;;;;;1.98;0.90;;;;;;;;;;5042542;28;20057;-92
2023/12/20 14:19:28;;;;;;;1.85;0.60;;;;;;;;;;5044743;28;20061;-91
2023/12/20 14:21:55;;;;;;;2.50;0.93;;;;;;;;;;5045123;28;20102;-92
2023/12/20 14:24:22;;;;;;;1.65;0.80;;;;;;;;;;5033489;28;20053;-90
2023/12/20 14:26:50;;;;;;;3.05;0.80;;;;;;;;;;5058538;28;20049;-92
2023/12/20 14:29:17;;;;;;;4.97;1.10;;;;;;;;;;5060867;28;20073;-90
2023/12/20 14:31:44;;;;;;;1.52;0.52;;;;;;;;;;5045148;28;20048;-91
2023/12/20 14:34:11;;;;;;;2.75;1.25;;;;;;;;;;5042927;28;20390;-89
2023/12/20 14:36:39;;;;;;;1.90;0.63;;;;;;;;;;5041665;28;20049;-93
2023/12/20 14:39:08;;;;;;;4.03;0.98;;;;;;;;;;5042992;28;20103;-90
2023/12/20 14:41:35;;;;;;;3.83;0.93;;;;;;;;;;5040326;28;20099;-89
2023/12/20 14:44:04;;;;;;;3.38;1.20;;;;;;;;;;5042667;28;20084;-90
2023/12/20 14:46:32;;;;;;;1.83;0.60;;;;;;;;;;5045650;28;20045;-93